Historique des mesures à Cassis (13260), France
Quotidien Résumé Fevrier 1, 2018 Unités:  US    Métrique   Métrique/US
« Précédent (Jour)
Suivant (Jour) »
Quotidien Hebdomadaire Mensuel Annuel Période au choix
  Maximum: Minimum: Moyenne:
Température: 32 °F 47.1 °F 49.5 °F
Point de rosée: 32 °F 36.3 °F 42.8 °F
Humidité: Humidity % 66 % 74 %
Vitesse du vent: WindSpeedKMH mph 0.0 mph 5.5 mph
Rafales: WindSpeedGustKMH mph - -
Vent:- - SW
Pression: 0 in 29.6 in -
Précipitations: 0.5 in    
Historical Graphs
 
 
Mesures pour : Fevrier 1, 2018
Heure Temperature Point de rosée Pression Vent Vitesse du vent Rafales Humidité Pluie (par heure)
32 °F 32 °F 0 in Calm     Humidity % HourlyPrecipMM in
00:12 51.4 °F 43.9 °F 29.9 in Calm     75 % 0.0 in
01:12 52.2 °F 44.8 °F 29.9 in Calm     76 % 0.0 in
02:12 52.7 °F 46.8 °F 29.8 in WSW 2.9 mph 6.8 mph 80 % 0.0 in
03:12 53.2 °F 47.8 °F 29.8 in Calm   4.0 mph 82 % 0.0 in
04:12 52.9 °F 47.5 °F 29.8 in WSW 7.6 mph 11.9 mph 82 % 0.0 in
05:12 51.6 °F 45.7 °F 29.7 in West 8.7 mph 8.7 mph 80 % 0.0 in
06:12 50.5 °F 45 °F 29.7 in West 7.2 mph 10.8 mph 81 % 0.0 in
07:12 50.4 °F 44.4 °F 29.7 in WNW 8.7 mph 9.3 mph 80 % 0.0 in
08:12 50.5 °F 44.2 °F 29.7 in WNW 5.5 mph 5.5 mph 79 % 0.0 in
10:12 50.7 °F 45.1 °F 29.7 in Calm     81 % 0.0 in
11:12 50.2 °F 44.4 °F 29.7 in WNW 7.9 mph 7.9 mph 81 % 0.5 in
12:12 50.2 °F 44.4 °F 29.7 in North 1.8 mph 7.6 mph 81 % 0.0 in
13:12 50.9 °F 45 °F 29.6 in Calm     80 % 0.0 in
14:12 50.7 °F 44.4 °F 29.6 in NW 5.8 mph 15.4 mph 79 % 0.0 in
15:12 50.5 °F 43.9 °F 29.6 in WNW 7.9 mph 9.0 mph 78 % 0.0 in
16:12 49.5 °F 43.2 °F 29.6 in West 5.8 mph 10.5 mph 79 % 0.0 in
17:12 49.3 °F 42.6 °F 29.6 in WNW 4.7 mph 8.7 mph 78 % 0.0 in
18:12 48.6 °F 41.2 °F 29.6 in North 4.7 mph 10.1 mph 76 % 0.0 in
19:12 48.4 °F 40.6 °F 29.6 in West 12.6 mph 13.0 mph 75 % 0.0 in
20:12 48 °F 39.9 °F 29.6 in WNW 15.8 mph 15.8 mph 74 % 0.0 in
21:12 47.7 °F 39 °F 29.6 in North 10.1 mph 24.5 mph 72 % 0.0 in
22:12 47.3 °F 36.5 °F 29.6 in NNE 8.2 mph 14.3 mph 66 % 0.0 in
23:12 47.1 °F 36.3 °F 29.6 in West 6.8 mph 6.8 mph 66 % 0.0 in
Observations météo à CASSIS
WU-History script by Weather Underground - 1 mb